createdAt,value
2023-02-16T00:02:05.970Z,2.12
2023-02-16T00:04:37.475Z,2.13
2023-02-16T00:07:08.056Z,2.14
2023-02-16T00:09:39.753Z,2.14
2023-02-16T00:12:35.705Z,2.14
2023-02-16T00:15:18.965Z,2.12
2023-02-16T00:17:51.244Z,2.10
2023-02-16T00:20:23.696Z,2.09
2023-02-16T00:22:54.476Z,2.08
2023-02-16T00:25:25.236Z,2.08
2023-02-16T00:27:57.944Z,2.08
2023-02-16T00:30:33.390Z,2.06
2023-02-16T00:33:04.516Z,2.05
2023-02-16T00:35:34.860Z,2.04
2023-02-16T00:38:11.462Z,2.02
2023-02-16T00:40:49.720Z,2.03
2023-02-16T00:43:27.535Z,2.03
2023-02-16T00:46:00.627Z,2.04
2023-02-16T00:48:29.727Z,2.03
2023-02-16T00:51:02.284Z,2.01
2023-02-16T00:54:22.824Z,2.00
2023-02-16T00:56:54.489Z,2.00
2023-02-16T00:59:27.231Z,2.00
2023-02-16T01:01:57.865Z,1.97
2023-02-16T01:04:30.557Z,1.96
2023-02-16T01:07:20.826Z,1.94
2023-02-16T01:10:09.383Z,1.92
2023-02-16T01:12:39.538Z,1.90
2023-02-16T01:15:15.548Z,1.87
2023-02-16T01:17:48.605Z,1.84
2023-02-16T01:20:21.947Z,1.82
2023-02-16T01:22:54.233Z,1.81
2023-02-16T01:25:26.722Z,1.81
2023-02-16T01:27:57.305Z,1.80
2023-02-16T01:30:27.969Z,1.79
2023-02-16T01:32:58.535Z,1.79
2023-02-16T01:35:34.336Z,1.77
2023-02-16T01:38:06.317Z,1.75
2023-02-16T01:40:36.156Z,1.73
2023-02-16T01:43:15.840Z,1.72
2023-02-16T01:46:03.950Z,1.70
2023-02-16T01:48:34.561Z,1.70
2023-02-16T01:51:13.650Z,1.69
2023-02-16T01:53:52.679Z,1.69
2023-02-16T01:56:32.660Z,1.66
2023-02-16T01:59:12.630Z,1.64
2023-02-16T02:01:43.886Z,1.62
2023-02-16T02:04:49.591Z,1.60
2023-02-16T02:07:28.088Z,1.57
2023-02-16T02:10:11.118Z,1.54
2023-02-16T02:12:57.307Z,1.53
2023-02-16T02:15:52.783Z,1.55
2023-02-16T02:18:50.736Z,1.55
2023-02-16T02:22:03.884Z,1.51
2023-02-16T02:24:56.438Z,1.48
2023-02-16T02:27:31.016Z,1.48
2023-02-16T02:30:11.078Z,1.47
2023-02-16T02:32:43.447Z,1.45
2023-02-16T02:35:13.561Z,1.44
2023-02-16T02:37:56.074Z,1.39
2023-02-16T02:40:35.192Z,1.36
2023-02-16T02:43:08.881Z,1.33
2023-02-16T02:45:42.362Z,1.30
2023-02-16T02:48:12.622Z,1.28
2023-02-16T02:51:08.086Z,1.27
2023-02-16T02:54:22.788Z,1.23
2023-02-16T02:57:22.808Z,1.21
2023-02-16T03:00:22.246Z,1.16
2023-02-16T03:02:56.452Z,1.15
2023-02-16T03:05:29.561Z,1.15
2023-02-16T03:08:08.079Z,1.13
2023-02-16T03:11:29.033Z,1.12
2023-02-16T03:14:08.994Z,1.12
2023-02-16T03:16:45.315Z,1.10
2023-02-16T03:19:35.111Z,1.09
2023-02-16T03:22:26.482Z,1.07
2023-02-16T03:25:17.274Z,1.06
2023-02-16T03:28:07.588Z,1.04
2023-02-16T03:30:39.215Z,1.01
2023-02-16T03:33:10.935Z,0.99
2023-02-16T03:35:40.307Z,0.98
2023-02-16T03:38:11.323Z,0.96
2023-02-16T03:40:42.322Z,0.97
2023-02-16T03:43:14.927Z,0.97
2023-02-16T03:45:46.234Z,0.99
2023-02-16T03:48:16.469Z,0.99
2023-02-16T03:50:50.003Z,0.98
2023-02-16T03:53:20.414Z,0.95
2023-02-16T03:55:51.794Z,0.89
2023-02-16T03:58:24.249Z,0.85
2023-02-16T04:00:57.953Z,0.83
2023-02-16T04:03:28.800Z,0.79
2023-02-16T04:05:59.878Z,0.75
2023-02-16T04:08:31.530Z,0.73
2023-02-16T04:11:01.049Z,0.70
2023-02-16T04:13:33.563Z,0.67
2023-02-16T04:16:02.761Z,0.63
2023-02-16T04:18:32.710Z,0.60
2023-02-16T04:21:03.956Z,0.57
2023-02-16T04:23:36.887Z,0.56
2023-02-16T04:26:08.818Z,0.56
2023-02-16T04:28:40.052Z,0.56
2023-02-16T04:31:11.634Z,0.54
2023-02-16T04:33:43.036Z,0.53
2023-02-16T04:36:20.030Z,0.52
2023-02-16T04:38:53.405Z,0.49
2023-02-16T04:41:25.385Z,0.49
2023-02-16T04:43:58.394Z,0.50
2023-02-16T04:46:31.040Z,0.46
2023-02-16T04:49:09.648Z,0.43
2023-02-16T04:51:40.897Z,0.41
2023-02-16T04:54:12.835Z,0.39
2023-02-16T04:56:49.944Z,0.37
2023-02-16T04:59:23.765Z,0.36
2023-02-16T05:02:21.809Z,0.36
2023-02-16T05:05:04.767Z,0.37
2023-02-16T05:07:34.657Z,0.34
2023-02-16T05:10:08.754Z,0.29
2023-02-16T05:12:58.780Z,0.24
2023-02-16T05:15:31.831Z,0.25
2023-02-16T05:18:04.426Z,0.26
2023-02-16T05:20:53.158Z,0.27
2023-02-16T05:23:29.849Z,0.26
2023-02-16T05:26:20.584Z,0.23
2023-02-16T05:28:55.469Z,0.21
2023-02-16T05:31:27.380Z,0.18
2023-02-16T05:37:54.018Z,0.17
2023-02-16T05:41:35.493Z,0.18
2023-02-16T05:44:28.808Z,0.16
2023-02-16T05:47:20.366Z,0.17
2023-02-16T05:50:18.558Z,0.18
2023-02-16T05:53:29.330Z,0.18
2023-02-16T05:57:02.847Z,0.20
2023-02-16T05:59:53.660Z,0.21
2023-02-16T06:08:41.492Z,0.23
2023-02-16T06:11:31.142Z,0.20
2023-02-16T06:14:03.057Z,0.18
2023-02-16T06:16:35.621Z,0.19
2023-02-16T06:19:06.000Z,0.21
2023-02-16T06:21:36.374Z,0.21
2023-02-16T06:24:09.060Z,0.18
2023-02-16T06:26:38.697Z,0.18
2023-02-16T06:29:09.702Z,0.19
2023-02-16T06:31:38.787Z,0.22
2023-02-16T06:34:07.700Z,0.25
2023-02-16T06:36:41.255Z,0.25
2023-02-16T06:39:11.191Z,0.27
2023-02-16T06:41:43.652Z,0.27
2023-02-16T06:44:15.880Z,0.25
2023-02-16T06:46:47.821Z,0.28
2023-02-16T06:49:21.477Z,0.31
2023-02-16T06:51:53.388Z,0.37
2023-02-16T06:54:26.397Z,0.40
2023-02-16T06:56:55.181Z,0.43
2023-02-16T06:59:24.064Z,0.44
2023-02-16T07:01:55.625Z,0.49
2023-02-16T07:04:25.241Z,0.52
2023-02-16T07:06:55.495Z,0.53
2023-02-16T07:09:26.478Z,0.53
2023-02-16T07:11:58.969Z,0.52
2023-02-16T07:14:32.235Z,0.50
2023-02-16T07:17:05.362Z,0.51
2023-02-16T07:19:34.813Z,0.52
2023-02-16T07:22:06.182Z,0.53
2023-02-16T07:24:35.633Z,0.49
2023-02-16T07:27:07.694Z,0.49
2023-02-16T07:29:39.616Z,0.51
2023-02-16T07:32:14.602Z,0.52
2023-02-16T07:34:47.974Z,0.53
2023-02-16T07:37:19.613Z,0.53
2023-02-16T07:39:49.440Z,0.54
2023-02-16T07:42:21.319Z,0.54
2023-02-16T07:44:54.727Z,0.52
2023-02-16T07:47:26.481Z,0.52
2023-02-16T07:49:56.508Z,0.54
2023-02-16T07:52:31.826Z,0.56
2023-02-16T07:55:05.834Z,0.60
2023-02-16T07:57:37.896Z,0.65
2023-02-16T08:00:11.394Z,0.67
2023-02-16T08:02:42.796Z,0.69
2023-02-16T08:05:13.442Z,0.73
2023-02-16T08:07:44.701Z,0.76
2023-02-16T08:13:13.787Z,0.81
2023-02-16T08:15:56.717Z,0.82
2023-02-16T08:18:31.632Z,0.80
2023-02-16T08:21:41.306Z,0.78
2023-02-16T08:25:25.193Z,0.72
2023-02-16T08:29:29.578Z,0.75
2023-02-16T08:36:22.104Z,0.81
2023-02-16T08:39:05.739Z,0.82
2023-02-16T08:41:59.575Z,0.82
2023-02-16T08:45:29.025Z,0.92
2023-02-16T08:48:02.660Z,0.93
2023-02-16T08:50:37.241Z,0.94
2023-02-16T08:53:08.876Z,0.97
2023-02-16T08:55:39.683Z,1.03
2023-02-16T08:58:10.484Z,1.09
2023-02-16T09:01:00.171Z,1.15
2023-02-16T09:03:51.666Z,1.21
2023-02-16T09:06:23.143Z,1.26
2023-02-16T09:08:55.159Z,1.30
2023-02-16T09:11:27.532Z,1.36
2023-02-16T09:14:00.119Z,1.38
2023-02-16T09:16:37.312Z,1.38
2023-02-16T09:19:32.289Z,1.39
2023-02-16T09:22:04.477Z,1.43
2023-02-16T09:24:35.997Z,1.52
2023-02-16T09:27:07.939Z,1.60
2023-02-16T09:29:39.045Z,1.65
2023-02-16T09:32:09.290Z,1.71
2023-02-16T09:34:39.221Z,1.76
2023-02-16T09:37:10.646Z,1.73
2023-02-16T09:39:41.014Z,1.75
2023-02-16T09:42:29.704Z,1.77
2023-02-16T09:45:13.027Z,1.82
2023-02-16T09:47:55.463Z,1.93
2023-02-16T09:50:52.103Z,2.01
2023-02-16T10:31:37.028Z,2.34
2023-02-16T10:48:38.071Z,2.73
2023-02-16T10:59:10.594Z,3.11
2023-02-16T11:01:45.773Z,3.22
2023-02-16T11:07:56.593Z,3.65
2023-02-16T11:11:01.883Z,3.99
2023-02-16T11:17:36.806Z,4.76
2023-02-16T11:33:25.370Z,6.11
2023-02-16T11:42:47.808Z,6.79
2023-02-16T11:45:31.621Z,6.89
2023-02-16T11:48:08.732Z,6.92
2023-02-16T11:50:40.502Z,7.06
2023-02-16T11:53:12.635Z,7.35
2023-02-16T11:55:43.581Z,7.53
2023-02-16T11:58:28.445Z,7.83
2023-02-16T12:01:38.942Z,8.64
2023-02-16T12:04:33.239Z,9.37
2023-02-16T12:07:36.432Z,9.63
2023-02-16T12:10:16.467Z,9.80
2023-02-16T12:13:24.180Z,10.00
2023-02-16T12:16:18.006Z,10.21
2023-02-16T12:21:58.676Z,10.03
2023-02-16T12:24:51.162Z,10.30
2023-02-16T12:28:00.929Z,10.40
2023-02-16T12:30:59.470Z,10.64
2023-02-16T12:34:05.205Z,10.68
2023-02-16T12:36:46.837Z,10.62
2023-02-16T12:39:39.052Z,10.47
2023-02-16T12:42:38.091Z,10.31
2023-02-16T12:45:14.243Z,10.15
2023-02-16T12:47:57.318Z,10.04
2023-02-16T12:50:29.636Z,10.08
2023-02-16T12:52:59.871Z,10.18
2023-02-16T12:55:33.292Z,10.34
2023-02-16T12:58:36.881Z,10.66
2023-02-16T13:01:12.472Z,10.83
2023-02-16T13:03:41.545Z,10.84
2023-02-16T13:09:27.271Z,10.19
2023-02-16T13:12:22.035Z,9.95
2023-02-16T13:15:02.856Z,9.49
2023-02-16T13:17:36.643Z,9.14
2023-02-16T13:20:13.865Z,8.96
2023-02-16T13:22:47.755Z,8.86
2023-02-16T13:25:32.056Z,8.72
2023-02-16T13:28:26.532Z,8.57
2023-02-16T13:31:09.104Z,8.48
2023-02-16T13:33:43.109Z,8.63
2023-02-16T13:36:22.845Z,8.71
2023-02-16T13:38:56.350Z,9.04
2023-02-16T13:41:32.747Z,9.56
2023-02-16T13:44:05.936Z,9.74
2023-02-16T13:46:50.488Z,9.62
2023-02-16T13:49:40.702Z,9.58
2023-02-16T13:52:27.910Z,9.72
2023-02-16T13:55:03.546Z,9.91
2023-02-16T13:57:54.039Z,9.93
2023-02-16T14:00:35.713Z,9.94
2023-02-16T14:03:13.902Z,10.02
2023-02-16T14:05:45.928Z,10.11
2023-02-16T14:08:20.998Z,9.95
2023-02-16T14:11:13.610Z,9.78
2023-02-16T14:14:03.490Z,9.66
2023-02-16T14:16:35.206Z,9.54
2023-02-16T14:19:28.269Z,9.34
2023-02-16T14:22:11.886Z,9.09
2023-02-16T14:24:45.370Z,8.91
2023-02-16T14:27:42.365Z,8.72
2023-02-16T14:30:36.321Z,8.37
2023-02-16T14:33:16.435Z,8.05
2023-02-16T14:35:47.835Z,7.91
2023-02-16T14:38:40.419Z,7.92
2023-02-16T14:41:16.147Z,7.80
2023-02-16T14:43:49.879Z,7.60
2023-02-16T14:46:19.042Z,7.50
2023-02-16T14:49:04.933Z,7.54
2023-02-16T14:52:24.809Z,7.61
2023-02-16T14:55:09.422Z,7.64
2023-02-16T14:57:50.227Z,7.59
2023-02-16T15:00:39.759Z,7.53
2023-02-16T15:03:23.253Z,7.44
2023-02-16T15:05:58.890Z,7.34
2023-02-16T15:08:36.070Z,7.21
2023-02-16T15:11:14.222Z,7.01
2023-02-16T15:13:48.263Z,6.83
2023-02-16T15:16:20.651Z,6.68
2023-02-16T15:18:54.457Z,6.58
2023-02-16T15:21:29.225Z,6.42
2023-02-16T15:24:03.949Z,6.26
2023-02-16T15:26:36.042Z,6.07
2023-02-16T15:29:23.682Z,5.91
2023-02-16T15:31:58.720Z,5.75
2023-02-16T15:34:36.979Z,5.61
2023-02-16T15:37:22.440Z,5.49
2023-02-16T15:40:15.085Z,5.36
2023-02-16T15:42:45.653Z,5.22
2023-02-16T15:45:34.620Z,5.08
2023-02-16T15:48:17.139Z,4.93
2023-02-16T15:50:49.611Z,4.78
2023-02-16T15:53:34.896Z,4.68
2023-02-16T15:56:19.632Z,4.60
2023-02-16T15:58:51.129Z,4.52
2023-02-16T16:01:31.537Z,4.46
2023-02-16T16:04:03.064Z,4.40
2023-02-16T16:06:34.348Z,4.34
2023-02-16T16:09:09.923Z,4.29
2023-02-16T16:11:41.357Z,4.21
2023-02-16T16:14:15.673Z,4.14
2023-02-16T16:16:53.671Z,4.07
2023-02-16T16:19:27.531Z,4.00
2023-02-16T16:22:03.526Z,3.90
2023-02-16T16:24:39.522Z,3.78
2023-02-16T16:27:12.033Z,3.73
2023-02-16T16:29:47.422Z,3.69
2023-02-16T16:32:26.706Z,3.60
2023-02-16T16:34:57.525Z,3.54
2023-02-16T16:37:32.128Z,3.51
2023-02-16T16:40:12.226Z,3.53
2023-02-16T16:43:03.291Z,3.50
2023-02-16T16:45:45.557Z,3.42
2023-02-16T16:48:36.482Z,3.38
2023-02-16T16:51:17.233Z,3.35
2023-02-16T16:54:14.318Z,3.32
2023-02-16T16:56:48.490Z,3.30
2023-02-16T16:59:23.097Z,3.27
2023-02-16T17:01:53.913Z,3.23
2023-02-16T17:04:29.950Z,3.23
2023-02-16T17:07:01.957Z,3.20
2023-02-16T17:09:35.007Z,3.18
2023-02-16T17:12:07.550Z,3.16
2023-02-16T17:14:43.579Z,3.15
2023-02-16T17:17:16.379Z,3.09
2023-02-16T17:19:52.800Z,3.01
2023-02-16T17:22:34.194Z,2.95
2023-02-16T17:25:06.794Z,2.93
2023-02-16T17:27:41.217Z,2.93
2023-02-16T17:30:21.087Z,2.90
2023-02-16T17:33:19.244Z,2.89
2023-02-16T17:35:56.364Z,2.86
2023-02-16T17:38:31.821Z,2.89
2023-02-16T17:41:04.553Z,2.90
2023-02-16T17:43:36.674Z,2.90
2023-02-16T17:46:10.436Z,2.92
2023-02-16T17:48:44.410Z,2.89
2023-02-16T17:51:17.953Z,2.84
2023-02-16T17:53:50.195Z,2.79
2023-02-16T17:56:26.546Z,2.74
2023-02-16T17:59:00.979Z,2.69
2023-02-16T18:01:32.998Z,2.67
2023-02-16T18:04:06.766Z,2.68
2023-02-16T18:06:37.901Z,2.71
2023-02-16T18:09:14.873Z,2.70
2023-02-16T18:11:48.855Z,2.69
2023-02-16T18:14:25.569Z,2.70
2023-02-16T18:17:03.661Z,2.71
2023-02-16T18:19:41.552Z,2.72
2023-02-16T18:22:51.468Z,2.74
2023-02-16T18:25:28.043Z,2.72
2023-02-16T18:28:02.764Z,2.66
2023-02-16T18:30:37.242Z,2.57
2023-02-16T18:33:09.999Z,2.47
2023-02-16T18:35:45.341Z,2.41
2023-02-16T18:38:21.345Z,2.33
2023-02-16T18:41:00.512Z,2.26
2023-02-16T18:43:36.740Z,2.21
2023-02-16T18:46:10.398Z,2.20
2023-02-16T18:48:46.373Z,2.17
2023-02-16T18:51:18.471Z,2.14
2023-02-16T18:53:53.013Z,2.12
2023-02-16T18:56:30.221Z,2.09
2023-02-16T18:59:04.105Z,2.09
2023-02-16T19:01:37.309Z,2.07
2023-02-16T19:04:14.450Z,2.06
2023-02-16T19:06:45.963Z,2.03
2023-02-16T19:09:21.217Z,1.99
2023-02-16T19:11:54.048Z,1.96
2023-02-16T19:14:27.980Z,1.94
2023-02-16T19:17:08.064Z,1.92
2023-02-16T19:19:42.971Z,1.92
2023-02-16T19:22:18.250Z,1.94
2023-02-16T19:24:50.550Z,1.96
2023-02-16T19:27:23.401Z,1.96
2023-02-16T19:30:00.791Z,1.96
2023-02-16T19:32:33.533Z,1.96
2023-02-16T19:35:13.008Z,1.98
2023-02-16T19:37:50.175Z,2.02
2023-02-16T19:40:27.613Z,2.05
2023-02-16T19:43:02.961Z,2.10
2023-02-16T19:45:38.297Z,2.14
2023-02-16T19:48:16.568Z,2.14
2023-02-16T19:50:53.295Z,2.13
2023-02-16T19:53:28.045Z,2.13
2023-02-16T19:55:59.069Z,2.12
2023-02-16T19:58:34.655Z,2.13
2023-02-16T20:01:11.224Z,2.14
2023-02-16T20:03:48.696Z,2.13
2023-02-16T20:06:25.973Z,2.10
2023-02-16T20:08:57.576Z,2.08
2023-02-16T20:11:29.700Z,2.08
2023-02-16T20:14:04.733Z,2.09
2023-02-16T20:16:47.937Z,2.12
2023-02-16T20:19:25.131Z,2.14
2023-02-16T20:21:59.089Z,2.16
2023-02-16T20:24:34.093Z,2.17
2023-02-16T20:27:07.686Z,2.19
2023-02-16T20:29:45.370Z,2.21
2023-02-16T20:32:20.723Z,2.21
2023-02-16T20:34:52.241Z,2.21
2023-02-16T20:37:23.010Z,2.21
2023-02-16T20:39:58.840Z,2.19
2023-02-16T20:42:34.441Z,2.20
2023-02-16T20:45:07.151Z,2.21
2023-02-16T20:47:39.913Z,2.22
2023-02-16T20:50:12.533Z,2.23
2023-02-16T20:52:47.999Z,2.25
2023-02-16T20:55:24.177Z,2.26
2023-02-16T20:57:56.835Z,2.24
2023-02-16T21:00:31.191Z,2.24
2023-02-16T21:03:09.935Z,2.25
2023-02-16T21:05:42.119Z,2.29
2023-02-16T21:08:14.387Z,2.31
2023-02-16T21:10:48.172Z,2.33
2023-02-16T21:13:20.122Z,2.34
2023-02-16T21:16:03.182Z,2.37
2023-02-16T21:18:35.473Z,2.41
2023-02-16T21:21:06.964Z,2.44
2023-02-16T21:24:03.121Z,2.47
2023-02-16T21:26:33.434Z,2.50
2023-02-16T21:29:06.526Z,2.54
2023-02-16T21:31:41.850Z,2.57
2023-02-16T21:34:13.993Z,2.63
2023-02-16T21:36:47.669Z,2.67
2023-02-16T21:39:18.026Z,2.71
2023-02-16T21:41:49.453Z,2.76
2023-02-16T21:44:20.731Z,2.78
2023-02-16T21:46:50.770Z,2.79
2023-02-16T21:49:22.138Z,2.79
2023-02-16T21:51:52.335Z,2.81
2023-02-16T21:54:47.707Z,2.82
2023-02-16T21:57:18.281Z,2.82
2023-02-16T21:59:48.327Z,2.84
2023-02-16T22:02:21.370Z,2.86
2023-02-16T22:04:53.712Z,2.88
2023-02-16T22:07:27.282Z,2.90
2023-02-16T22:09:58.009Z,2.93
2023-02-16T22:12:30.024Z,2.95
2023-02-16T22:14:59.001Z,2.96
2023-02-16T22:17:27.964Z,2.98
2023-02-16T22:20:00.620Z,2.99
2023-02-16T22:22:29.978Z,3.01
2023-02-16T22:25:01.516Z,3.02
2023-02-16T22:27:33.556Z,3.03
2023-02-16T22:30:04.188Z,3.06
2023-02-16T22:32:35.221Z,3.09
2023-02-16T22:35:05.090Z,3.14
2023-02-16T22:37:37.493Z,3.18
2023-02-16T22:40:07.371Z,3.22
2023-02-16T22:42:44.667Z,3.23
2023-02-16T22:45:17.005Z,3.23
2023-02-16T22:47:49.022Z,3.25
2023-02-16T22:50:18.789Z,3.25
2023-02-16T22:52:50.596Z,3.27
2023-02-16T22:55:23.782Z,3.27
2023-02-16T22:57:53.688Z,3.30
2023-02-16T23:00:27.631Z,3.33
2023-02-16T23:02:58.642Z,3.35
2023-02-16T23:05:30.030Z,3.36
2023-02-16T23:08:00.972Z,3.36
2023-02-16T23:10:33.960Z,3.35
2023-02-16T23:13:05.210Z,3.35
2023-02-16T23:15:36.657Z,3.36
2023-02-16T23:18:07.793Z,3.36
2023-02-16T23:20:39.174Z,3.38
2023-02-16T23:23:08.059Z,3.38
2023-02-16T23:25:38.181Z,3.41
2023-02-16T23:28:11.328Z,3.43
2023-02-16T23:30:49.034Z,3.47
2023-02-16T23:33:17.875Z,3.48
2023-02-16T23:35:51.177Z,3.48
2023-02-16T23:38:22.355Z,3.50
2023-02-16T23:41:04.884Z,3.52
2023-02-16T23:43:36.292Z,3.53
2023-02-16T23:46:09.884Z,3.57
2023-02-16T23:48:41.427Z,3.59
2023-02-16T23:51:12.584Z,3.62
2023-02-16T23:54:11.943Z,3.64
2023-02-16T23:56:41.605Z,3.62
2023-02-16T23:59:11.614Z,3.62
